sensor_id;sensor_type;location;lat;lon;timestamp;temperature;humidity
26803;DHT22;14378;51.796;5.808;2023-09-19T00:00:28;15.80;99.90
26803;DHT22;14378;51.796;5.808;2023-09-19T00:02:28;15.80;99.90
26803;DHT22;14378;51.796;5.808;2023-09-19T00:04:31;15.80;99.90
26803;DHT22;14378;51.796;5.808;2023-09-19T00:06:33;15.80;99.90
26803;DHT22;14378;51.796;5.808;2023-09-19T00:08:34;15.70;99.90
26803;DHT22;14378;51.796;5.808;2023-09-19T00:11:06;15.70;99.90
26803;DHT22;14378;51.796;5.808;2023-09-19T00:13:09;15.70;99.90
26803;DHT22;14378;51.796;5.808;2023-09-19T00:15:14;15.70;99.90
26803;DHT22;14378;51.796;5.808;2023-09-19T00:17:18;15.70;99.90
26803;DHT22;14378;51.796;5.808;2023-09-19T00:19:19;15.70;99.90
26803;DHT22;14378;51.796;5.808;2023-09-19T00:21:20;15.70;99.90
26803;DHT22;14378;51.796;5.808;2023-09-19T00:23:21;15.70;99.90
26803;DHT22;14378;51.796;5.808;2023-09-19T00:28:05;15.70;99.90
26803;DHT22;14378;51.796;5.808;2023-09-19T00:30:09;15.70;99.90
26803;DHT22;14378;51.796;5.808;2023-09-19T00:32:14;15.70;99.90
26803;DHT22;14378;51.796;5.808;2023-09-19T00:34:16;15.80;99.90
26803;DHT22;14378;51.796;5.808;2023-09-19T00:36:17;15.80;99.90
26803;DHT22;14378;51.796;5.808;2023-09-19T00:38:20;15.70;99.90
26803;DHT22;14378;51.796;5.808;2023-09-19T00:40:23;15.80;99.90
26803;DHT22;14378;51.796;5.808;2023-09-19T00:42:24;15.70;99.90
26803;DHT22;14378;51.796;5.808;2023-09-19T00:44:26;15.70;99.90
26803;DHT22;14378;51.796;5.808;2023-09-19T00:46:27;15.70;99.90
26803;DHT22;14378;51.796;5.808;2023-09-19T00:48:28;15.70;99.90
26803;DHT22;14378;51.796;5.808;2023-09-19T00:50:30;15.70;99.90
26803;DHT22;14378;51.796;5.808;2023-09-19T00:52:35;15.70;99.90
26803;DHT22;14378;51.796;5.808;2023-09-19T00:54:40;15.70;99.90
26803;DHT22;14378;51.796;5.808;2023-09-19T00:56:41;15.60;99.90
26803;DHT22;14378;51.796;5.808;2023-09-19T00:58:42;15.70;99.90
26803;DHT22;14378;51.796;5.808;2023-09-19T01:00:44;15.60;99.90
26803;DHT22;14378;51.796;5.808;2023-09-19T01:02:45;15.50;99.90
26803;DHT22;14378;51.796;5.808;2023-09-19T01:04:47;15.50;99.90
26803;DHT22;14378;51.796;5.808;2023-09-19T01:06:49;15.50;99.90
26803;DHT22;14378;51.796;5.808;2023-09-19T01:08:54;15.50;99.90
26803;DHT22;14378;51.796;5.808;2023-09-19T01:11:01;15.40;99.90
26803;DHT22;14378;51.796;5.808;2023-09-19T01:13:15;15.40;99.90
26803;DHT22;14378;51.796;5.808;2023-09-19T01:15:43;15.30;99.90
26803;DHT22;14378;51.796;5.808;2023-09-19T01:22:45;15.20;99.90
26803;DHT22;14378;51.796;5.808;2023-09-19T01:29:43;15.20;99.90
26803;DHT22;14378;51.796;5.808;2023-09-19T01:31:45;15.20;99.90
26803;DHT22;14378;51.796;5.808;2023-09-19T01:33:58;15.20;99.90
26803;DHT22;14378;51.796;5.808;2023-09-19T01:36:04;15.20;99.90
26803;DHT22;14378;51.796;5.808;2023-09-19T01:38:06;15.10;99.90
26803;DHT22;14378;51.796;5.808;2023-09-19T01:40:14;15.20;99.90
26803;DHT22;14378;51.796;5.808;2023-09-19T01:46:48;15.10;99.90
26803;DHT22;14378;51.796;5.808;2023-09-19T01:51:02;15.10;99.90
26803;DHT22;14378;51.796;5.808;2023-09-19T01:53:27;15.10;99.90
26803;DHT22;14378;51.796;5.808;2023-09-19T01:55:41;15.10;99.90
26803;DHT22;14378;51.796;5.808;2023-09-19T01:57:58;15.10;99.90
26803;DHT22;14378;51.796;5.808;2023-09-19T02:00:05;15.10;99.90
26803;DHT22;14378;51.796;5.808;2023-09-19T02:02:18;15.10;99.90
26803;DHT22;14378;51.796;5.808;2023-09-19T02:04:21;15.10;99.90
26803;DHT22;14378;51.796;5.808;2023-09-19T02:06:22;15.10;99.90
26803;DHT22;14378;51.796;5.808;2023-09-19T02:08:27;15.10;99.90
26803;DHT22;14378;51.796;5.808;2023-09-19T02:10:28;15.00;99.90
26803;DHT22;14378;51.796;5.808;2023-09-19T02:12:29;15.00;99.90
26803;DHT22;14378;51.796;5.808;2023-09-19T02:14:31;15.00;99.90
26803;DHT22;14378;51.796;5.808;2023-09-19T02:16:32;15.00;99.90
26803;DHT22;14378;51.796;5.808;2023-09-19T02:18:33;15.00;99.90
26803;DHT22;14378;51.796;5.808;2023-09-19T02:20:35;14.90;99.90
26803;DHT22;14378;51.796;5.808;2023-09-19T02:22:37;14.90;99.90
26803;DHT22;14378;51.796;5.808;2023-09-19T02:24:39;14.90;99.90
26803;DHT22;14378;51.796;5.808;2023-09-19T02:26:40;14.90;99.90
26803;DHT22;14378;51.796;5.808;2023-09-19T02:28:42;14.90;99.90
26803;DHT22;14378;51.796;5.808;2023-09-19T02:30:45;14.80;99.90
26803;DHT22;14378;51.796;5.808;2023-09-19T02:32:48;14.80;99.90
26803;DHT22;14378;51.796;5.808;2023-09-19T02:34:50;14.80;99.90
26803;DHT22;14378;51.796;5.808;2023-09-19T02:36:52;14.70;99.90
26803;DHT22;14378;51.796;5.808;2023-09-19T02:38:57;14.70;99.90
26803;DHT22;14378;51.796;5.808;2023-09-19T02:40:58;14.70;99.90
26803;DHT22;14378;51.796;5.808;2023-09-19T02:42:59;14.60;99.90
26803;DHT22;14378;51.796;5.808;2023-09-19T02:45:00;14.70;99.90
26803;DHT22;14378;51.796;5.808;2023-09-19T02:47:01;14.70;99.90
26803;DHT22;14378;51.796;5.808;2023-09-19T02:49:03;14.60;99.90
26803;DHT22;14378;51.796;5.808;2023-09-19T02:51:07;14.60;99.90
26803;DHT22;14378;51.796;5.808;2023-09-19T02:53:08;14.60;99.90
26803;DHT22;14378;51.796;5.808;2023-09-19T02:55:09;14.50;99.90
26803;DHT22;14378;51.796;5.808;2023-09-19T02:57:10;14.50;99.90
26803;DHT22;14378;51.796;5.808;2023-09-19T02:59:11;14.50;99.90
26803;DHT22;14378;51.796;5.808;2023-09-19T03:01:12;14.50;99.90
26803;DHT22;14378;51.796;5.808;2023-09-19T03:03:13;14.40;99.90
26803;DHT22;14378;51.796;5.808;2023-09-19T03:05:16;14.40;99.90
26803;DHT22;14378;51.796;5.808;2023-09-19T03:07:17;14.40;99.90
26803;DHT22;14378;51.796;5.808;2023-09-19T03:09:18;14.30;99.90
26803;DHT22;14378;51.796;5.808;2023-09-19T03:11:20;14.40;99.90
26803;DHT22;14378;51.796;5.808;2023-09-19T03:13:26;14.30;99.90
26803;DHT22;14378;51.796;5.808;2023-09-19T03:15:27;14.30;99.90
26803;DHT22;14378;51.796;5.808;2023-09-19T03:17:28;14.30;99.90
26803;DHT22;14378;51.796;5.808;2023-09-19T03:19:30;14.20;99.90
26803;DHT22;14378;51.796;5.808;2023-09-19T03:21:34;14.20;99.90
26803;DHT22;14378;51.796;5.808;2023-09-19T03:23:36;14.20;99.90
26803;DHT22;14378;51.796;5.808;2023-09-19T03:25:39;14.20;99.90
26803;DHT22;14378;51.796;5.808;2023-09-19T03:27:40;14.20;99.90
26803;DHT22;14378;51.796;5.808;2023-09-19T03:29:42;14.20;99.90
26803;DHT22;14378;51.796;5.808;2023-09-19T03:31:43;14.20;99.90
26803;DHT22;14378;51.796;5.808;2023-09-19T03:33:44;14.20;99.90
26803;DHT22;14378;51.796;5.808;2023-09-19T03:35:52;14.20;99.90
26803;DHT22;14378;51.796;5.808;2023-09-19T03:37:57;14.20;99.90
26803;DHT22;14378;51.796;5.808;2023-09-19T03:39:58;14.10;99.90
26803;DHT22;14378;51.796;5.808;2023-09-19T03:42:00;14.10;99.90
26803;DHT22;14378;51.796;5.808;2023-09-19T03:44:01;14.10;99.90
26803;DHT22;14378;51.796;5.808;2023-09-19T03:46:02;14.10;99.90
26803;DHT22;14378;51.796;5.808;2023-09-19T03:48:09;14.10;99.90
26803;DHT22;14378;51.796;5.808;2023-09-19T03:50:16;14.10;99.90
26803;DHT22;14378;51.796;5.808;2023-09-19T03:52:18;14.10;99.90
26803;DHT22;14378;51.796;5.808;2023-09-19T03:54:19;14.10;99.90
26803;DHT22;14378;51.796;5.808;2023-09-19T03:56:20;14.10;99.90
26803;DHT22;14378;51.796;5.808;2023-09-19T03:58:21;14.10;99.90
26803;DHT22;14378;51.796;5.808;2023-09-19T04:00:23;14.10;99.90
26803;DHT22;14378;51.796;5.808;2023-09-19T04:02:26;14.10;99.90
26803;DHT22;14378;51.796;5.808;2023-09-19T04:04:33;14.10;99.90
26803;DHT22;14378;51.796;5.808;2023-09-19T04:06:35;14.10;99.90
26803;DHT22;14378;51.796;5.808;2023-09-19T04:08:36;14.10;99.90
26803;DHT22;14378;51.796;5.808;2023-09-19T04:10:36;14.10;99.90
26803;DHT22;14378;51.796;5.808;2023-09-19T04:12:37;14.10;99.90
26803;DHT22;14378;51.796;5.808;2023-09-19T04:14:41;14.10;99.90
26803;DHT22;14378;51.796;5.808;2023-09-19T04:16:42;14.10;99.90
26803;DHT22;14378;51.796;5.808;2023-09-19T04:18:42;14.10;99.90
26803;DHT22;14378;51.796;5.808;2023-09-19T04:20:48;14.10;99.90
26803;DHT22;14378;51.796;5.808;2023-09-19T04:22:49;14.10;99.90
26803;DHT22;14378;51.796;5.808;2023-09-19T04:25:00;14.10;99.90
26803;DHT22;14378;51.796;5.808;2023-09-19T04:27:01;14.10;99.90
26803;DHT22;14378;51.796;5.808;2023-09-19T04:29:02;14.10;99.90
26803;DHT22;14378;51.796;5.808;2023-09-19T04:31:04;14.10;99.90
26803;DHT22;14378;51.796;5.808;2023-09-19T04:33:08;14.10;99.90
26803;DHT22;14378;51.796;5.808;2023-09-19T04:35:09;14.10;99.90
26803;DHT22;14378;51.796;5.808;2023-09-19T04:37:11;14.10;99.90
26803;DHT22;14378;51.796;5.808;2023-09-19T04:39:11;14.10;99.90
26803;DHT22;14378;51.796;5.808;2023-09-19T04:41:13;14.10;99.90
26803;DHT22;14378;51.796;5.808;2023-09-19T04:43:16;14.10;99.90
26803;DHT22;14378;51.796;5.808;2023-09-19T04:45:17;14.10;99.90
26803;DHT22;14378;51.796;5.808;2023-09-19T04:47:20;14.10;99.90
26803;DHT22;14378;51.796;5.808;2023-09-19T04:49:22;14.10;99.90
26803;DHT22;14378;51.796;5.808;2023-09-19T04:51:23;14.10;99.90
26803;DHT22;14378;51.796;5.808;2023-09-19T04:53:24;14.10;99.90
26803;DHT22;14378;51.796;5.808;2023-09-19T04:55:25;14.10;99.90
26803;DHT22;14378;51.796;5.808;2023-09-19T04:57:26;14.20;99.90
26803;DHT22;14378;51.796;5.808;2023-09-19T04:59:28;14.20;99.90
26803;DHT22;14378;51.796;5.808;2023-09-19T05:01:29;14.20;99.90
26803;DHT22;14378;51.796;5.808;2023-09-19T05:03:30;14.20;99.90
26803;DHT22;14378;51.796;5.808;2023-09-19T05:05:31;14.20;99.90
26803;DHT22;14378;51.796;5.808;2023-09-19T05:07:32;14.10;99.90
26803;DHT22;14378;51.796;5.808;2023-09-19T05:09:34;14.20;99.90
26803;DHT22;14378;51.796;5.808;2023-09-19T05:11:38;14.20;99.90
26803;DHT22;14378;51.796;5.808;2023-09-19T05:13:39;14.20;99.90
26803;DHT22;14378;51.796;5.808;2023-09-19T05:15:40;14.20;99.90
26803;DHT22;14378;51.796;5.808;2023-09-19T05:17:41;14.20;99.90
26803;DHT22;14378;51.796;5.808;2023-09-19T05:19:42;14.20;99.90
26803;DHT22;14378;51.796;5.808;2023-09-19T05:21:43;14.30;99.90
26803;DHT22;14378;51.796;5.808;2023-09-19T05:23:44;14.20;99.90
26803;DHT22;14378;51.796;5.808;2023-09-19T05:25:45;14.30;99.90
26803;DHT22;14378;51.796;5.808;2023-09-19T05:27:46;14.30;99.90
26803;DHT22;14378;51.796;5.808;2023-09-19T05:29:47;14.30;99.90
26803;DHT22;14378;51.796;5.808;2023-09-19T05:31:49;14.20;99.90
26803;DHT22;14378;51.796;5.808;2023-09-19T05:33:52;14.30;99.90
26803;DHT22;14378;51.796;5.808;2023-09-19T05:36:32;14.20;99.90
26803;DHT22;14378;51.796;5.808;2023-09-19T05:38:35;14.30;99.90
26803;DHT22;14378;51.796;5.808;2023-09-19T05:40:46;14.30;99.90
26803;DHT22;14378;51.796;5.808;2023-09-19T05:42:47;14.30;99.90
26803;DHT22;14378;51.796;5.808;2023-09-19T05:44:48;14.30;99.90
26803;DHT22;14378;51.796;5.808;2023-09-19T05:46:50;14.30;99.90
26803;DHT22;14378;51.796;5.808;2023-09-19T05:48:51;14.30;99.90
26803;DHT22;14378;51.796;5.808;2023-09-19T05:50:52;14.30;99.90
26803;DHT22;14378;51.796;5.808;2023-09-19T05:52:54;14.30;99.90
26803;DHT22;14378;51.796;5.808;2023-09-19T05:54:56;14.30;99.90
26803;DHT22;14378;51.796;5.808;2023-09-19T05:56:58;14.30;99.90
26803;DHT22;14378;51.796;5.808;2023-09-19T05:58:58;14.30;99.90
26803;DHT22;14378;51.796;5.808;2023-09-19T06:01:00;14.30;99.90
26803;DHT22;14378;51.796;5.808;2023-09-19T06:03:02;14.30;99.90
26803;DHT22;14378;51.796;5.808;2023-09-19T06:05:06;14.40;99.90
26803;DHT22;14378;51.796;5.808;2023-09-19T06:07:11;14.30;99.90
26803;DHT22;14378;51.796;5.808;2023-09-19T06:09:13;14.40;99.90
26803;DHT22;14378;51.796;5.808;2023-09-19T06:11:14;14.40;99.90
26803;DHT22;14378;51.796;5.808;2023-09-19T06:13:15;14.40;99.90
26803;DHT22;14378;51.796;5.808;2023-09-19T06:15:16;14.50;99.90
26803;DHT22;14378;51.796;5.808;2023-09-19T06:17:19;14.40;99.90
26803;DHT22;14378;51.796;5.808;2023-09-19T06:19:22;14.40;99.90
26803;DHT22;14378;51.796;5.808;2023-09-19T06:21:23;14.50;99.90
26803;DHT22;14378;51.796;5.808;2023-09-19T06:23:24;14.50;99.90
26803;DHT22;14378;51.796;5.808;2023-09-19T06:25:27;14.50;99.90
26803;DHT22;14378;51.796;5.808;2023-09-19T06:27:28;14.50;99.90
26803;DHT22;14378;51.796;5.808;2023-09-19T06:29:30;14.50;99.90
26803;DHT22;14378;51.796;5.808;2023-09-19T06:31:31;14.50;99.90
26803;DHT22;14378;51.796;5.808;2023-09-19T06:33:31;14.60;99.90
26803;DHT22;14378;51.796;5.808;2023-09-19T06:35:33;14.60;99.90
26803;DHT22;14378;51.796;5.808;2023-09-19T06:37:34;14.70;99.90
26803;DHT22;14378;51.796;5.808;2023-09-19T06:39:36;14.70;99.90
26803;DHT22;14378;51.796;5.808;2023-09-19T06:41:37;14.70;99.90
26803;DHT22;14378;51.796;5.808;2023-09-19T06:43:44;14.70;99.90
26803;DHT22;14378;51.796;5.808;2023-09-19T06:45:45;14.70;99.90
26803;DHT22;14378;51.796;5.808;2023-09-19T06:47:47;14.70;99.90
26803;DHT22;14378;51.796;5.808;2023-09-19T06:49:51;14.70;99.90
26803;DHT22;14378;51.796;5.808;2023-09-19T06:51:54;14.80;99.90
26803;DHT22;14378;51.796;5.808;2023-09-19T06:53:55;14.80;99.90
26803;DHT22;14378;51.796;5.808;2023-09-19T06:55:58;14.80;99.90
26803;DHT22;14378;51.796;5.808;2023-09-19T06:57:59;14.90;99.90
26803;DHT22;14378;51.796;5.808;2023-09-19T07:00:00;14.90;99.90
26803;DHT22;14378;51.796;5.808;2023-09-19T07:02:02;14.90;99.90
26803;DHT22;14378;51.796;5.808;2023-09-19T07:04:03;15.00;99.90
26803;DHT22;14378;51.796;5.808;2023-09-19T07:06:04;14.90;99.90
26803;DHT22;14378;51.796;5.808;2023-09-19T07:08:07;14.90;99.90
26803;DHT22;14378;51.796;5.808;2023-09-19T07:10:09;15.00;99.90
26803;DHT22;14378;51.796;5.808;2023-09-19T07:12:13;15.00;99.90
26803;DHT22;14378;51.796;5.808;2023-09-19T07:14:14;15.00;99.90
26803;DHT22;14378;51.796;5.808;2023-09-19T07:16:15;15.00;99.90
26803;DHT22;14378;51.796;5.808;2023-09-19T07:18:31;15.10;99.90
26803;DHT22;14378;51.796;5.808;2023-09-19T07:20:34;15.10;99.90
26803;DHT22;14378;51.796;5.808;2023-09-19T07:22:36;15.20;99.90
26803;DHT22;14378;51.796;5.808;2023-09-19T07:24:40;15.20;99.90
26803;DHT22;14378;51.796;5.808;2023-09-19T07:26:41;15.30;99.90
26803;DHT22;14378;51.796;5.808;2023-09-19T07:28:43;15.30;99.90
26803;DHT22;14378;51.796;5.808;2023-09-19T07:30:44;15.30;99.90
26803;DHT22;14378;51.796;5.808;2023-09-19T07:32:45;15.40;99.90
26803;DHT22;14378;51.796;5.808;2023-09-19T07:34:46;15.40;99.90
26803;DHT22;14378;51.796;5.808;2023-09-19T07:36:47;15.50;99.90
26803;DHT22;14378;51.796;5.808;2023-09-19T07:38:48;15.40;99.90
26803;DHT22;14378;51.796;5.808;2023-09-19T07:40:49;15.50;99.90
26803;DHT22;14378;51.796;5.808;2023-09-19T07:42:50;15.50;99.90
26803;DHT22;14378;51.796;5.808;2023-09-19T07:44:51;15.50;99.90
26803;DHT22;14378;51.796;5.808;2023-09-19T07:46:57;15.50;99.90
26803;DHT22;14378;51.796;5.808;2023-09-19T07:48:58;15.60;99.90
26803;DHT22;14378;51.796;5.808;2023-09-19T07:51:03;15.60;99.90
26803;DHT22;14378;51.796;5.808;2023-09-19T07:53:04;15.60;99.90
26803;DHT22;14378;51.796;5.808;2023-09-19T07:55:06;15.70;99.90
26803;DHT22;14378;51.796;5.808;2023-09-19T07:57:12;15.70;99.90
26803;DHT22;14378;51.796;5.808;2023-09-19T07:59:12;15.70;99.90
26803;DHT22;14378;51.796;5.808;2023-09-19T08:01:14;15.80;99.90
26803;DHT22;14378;51.796;5.808;2023-09-19T08:03:17;15.80;99.90
26803;DHT22;14378;51.796;5.808;2023-09-19T08:05:19;15.90;99.90
26803;DHT22;14378;51.796;5.808;2023-09-19T08:07:21;15.90;99.90
26803;DHT22;14378;51.796;5.808;2023-09-19T08:09:23;16.00;99.90
26803;DHT22;14378;51.796;5.808;2023-09-19T08:11:24;16.00;99.90
26803;DHT22;14378;51.796;5.808;2023-09-19T08:13:26;16.10;99.90
26803;DHT22;14378;51.796;5.808;2023-09-19T08:15:26;16.10;99.90
26803;DHT22;14378;51.796;5.808;2023-09-19T08:17:27;16.20;99.90
26803;DHT22;14378;51.796;5.808;2023-09-19T08:19:28;16.20;99.90
26803;DHT22;14378;51.796;5.808;2023-09-19T08:21:30;16.30;99.90
26803;DHT22;14378;51.796;5.808;2023-09-19T08:23:31;16.30;99.90
26803;DHT22;14378;51.796;5.808;2023-09-19T08:25:33;16.30;99.90
26803;DHT22;14378;51.796;5.808;2023-09-19T08:27:34;16.40;99.90
26803;DHT22;14378;51.796;5.808;2023-09-19T08:29:39;16.50;99.90
26803;DHT22;14378;51.796;5.808;2023-09-19T08:31:40;16.50;99.90
26803;DHT22;14378;51.796;5.808;2023-09-19T08:33:41;16.50;99.90
26803;DHT22;14378;51.796;5.808;2023-09-19T08:35:45;16.50;99.90
26803;DHT22;14378;51.796;5.808;2023-09-19T08:37:46;16.60;99.90
26803;DHT22;14378;51.796;5.808;2023-09-19T08:39:47;16.60;99.90
26803;DHT22;14378;51.796;5.808;2023-09-19T08:41:49;16.70;99.90
26803;DHT22;14378;51.796;5.808;2023-09-19T08:43:50;16.70;99.90
26803;DHT22;14378;51.796;5.808;2023-09-19T08:46:02;16.70;99.90
26803;DHT22;14378;51.796;5.808;2023-09-19T08:48:23;16.80;99.90
26803;DHT22;14378;51.796;5.808;2023-09-19T08:50:28;16.80;99.90
26803;DHT22;14378;51.796;5.808;2023-09-19T08:52:41;16.90;99.90
26803;DHT22;14378;51.796;5.808;2023-09-19T08:54:42;17.00;99.90
26803;DHT22;14378;51.796;5.808;2023-09-19T08:56:45;17.10;99.90
26803;DHT22;14378;51.796;5.808;2023-09-19T08:58:51;17.20;99.90
26803;DHT22;14378;51.796;5.808;2023-09-19T09:00:55;17.30;99.90
26803;DHT22;14378;51.796;5.808;2023-09-19T09:02:58;17.40;99.90
26803;DHT22;14378;51.796;5.808;2023-09-19T09:05:02;17.40;99.90
26803;DHT22;14378;51.796;5.808;2023-09-19T09:07:13;17.50;99.90
26803;DHT22;14378;51.796;5.808;2023-09-19T09:09:15;17.70;99.90
26803;DHT22;14378;51.796;5.808;2023-09-19T09:11:16;17.70;99.90
26803;DHT22;14378;51.796;5.808;2023-09-19T09:13:18;17.80;99.90
26803;DHT22;14378;51.796;5.808;2023-09-19T09:15:19;17.80;99.90
26803;DHT22;14378;51.796;5.808;2023-09-19T09:17:23;17.80;99.90
26803;DHT22;14378;51.796;5.808;2023-09-19T09:19:25;17.90;99.90
26803;DHT22;14378;51.796;5.808;2023-09-19T09:21:27;18.00;99.90
26803;DHT22;14378;51.796;5.808;2023-09-19T09:23:28;18.10;99.90
26803;DHT22;14378;51.796;5.808;2023-09-19T09:25:49;18.30;99.90
26803;DHT22;14378;51.796;5.808;2023-09-19T09:28:01;18.30;99.90
26803;DHT22;14378;51.796;5.808;2023-09-19T09:30:03;18.30;99.90
26803;DHT22;14378;51.796;5.808;2023-09-19T09:32:20;18.30;99.90
26803;DHT22;14378;51.796;5.808;2023-09-19T09:34:21;18.30;99.90
26803;DHT22;14378;51.796;5.808;2023-09-19T09:36:42;18.30;99.90
26803;DHT22;14378;51.796;5.808;2023-09-19T09:38:48;18.40;99.90
26803;DHT22;14378;51.796;5.808;2023-09-19T09:40:51;18.40;99.90
26803;DHT22;14378;51.796;5.808;2023-09-19T09:43:25;18.60;99.90
26803;DHT22;14378;51.796;5.808;2023-09-19T09:45:27;18.60;99.90
26803;DHT22;14378;51.796;5.808;2023-09-19T09:47:47;18.70;99.90
26803;DHT22;14378;51.796;5.808;2023-09-19T09:49:57;18.80;99.90
26803;DHT22;14378;51.796;5.808;2023-09-19T09:52:08;18.90;99.90
26803;DHT22;14378;51.796;5.808;2023-09-19T09:54:18;18.90;99.90
26803;DHT22;14378;51.796;5.808;2023-09-19T09:59:56;19.10;99.90
26803;DHT22;14378;51.796;5.808;2023-09-19T10:02:19;19.20;99.90
26803;DHT22;14378;51.796;5.808;2023-09-19T10:04:28;19.30;99.90
26803;DHT22;14378;51.796;5.808;2023-09-19T10:06:40;19.40;99.90
26803;DHT22;14378;51.796;5.808;2023-09-19T10:09:07;19.40;99.90
26803;DHT22;14378;51.796;5.808;2023-09-19T10:11:16;19.40;99.90
26803;DHT22;14378;51.796;5.808;2023-09-19T10:13:17;19.50;99.90
26803;DHT22;14378;51.796;5.808;2023-09-19T10:15:23;19.60;99.90
26803;DHT22;14378;51.796;5.808;2023-09-19T10:17:25;19.80;99.90
26803;DHT22;14378;51.796;5.808;2023-09-19T10:19:58;19.80;99.90
26803;DHT22;14378;51.796;5.808;2023-09-19T10:22:02;19.70;99.90
26803;DHT22;14378;51.796;5.808;2023-09-19T10:24:04;19.70;99.90
26803;DHT22;14378;51.796;5.808;2023-09-19T10:26:08;19.60;99.90
26803;DHT22;14378;51.796;5.808;2023-09-19T10:28:11;19.50;99.90
26803;DHT22;14378;51.796;5.808;2023-09-19T10:30:14;19.60;99.90
26803;DHT22;14378;51.796;5.808;2023-09-19T10:32:19;19.50;99.90
26803;DHT22;14378;51.796;5.808;2023-09-19T10:34:22;19.60;99.90
26803;DHT22;14378;51.796;5.808;2023-09-19T10:36:24;19.50;99.90
26803;DHT22;14378;51.796;5.808;2023-09-19T10:38:27;19.60;99.90
26803;DHT22;14378;51.796;5.808;2023-09-19T10:40:29;19.70;99.90
26803;DHT22;14378;51.796;5.808;2023-09-19T10:42:40;19.70;99.90
26803;DHT22;14378;51.796;5.808;2023-09-19T10:44:43;19.60;99.90
26803;DHT22;14378;51.796;5.808;2023-09-19T10:46:46;19.60;99.90
26803;DHT22;14378;51.796;5.808;2023-09-19T10:48:50;19.60;99.90
26803;DHT22;14378;51.796;5.808;2023-09-19T10:51:29;19.70;99.90
26803;DHT22;14378;51.796;5.808;2023-09-19T10:55:55;19.80;99.90
26803;DHT22;14378;51.796;5.808;2023-09-19T10:57:59;19.80;99.90
26803;DHT22;14378;51.796;5.808;2023-09-19T11:00:08;19.80;99.90
26803;DHT22;14378;51.796;5.808;2023-09-19T11:02:23;19.80;99.90
26803;DHT22;14378;51.796;5.808;2023-09-19T11:04:30;19.70;99.90
26803;DHT22;14378;51.796;5.808;2023-09-19T11:06:31;19.60;99.90
26803;DHT22;14378;51.796;5.808;2023-09-19T11:08:56;19.80;99.90
26803;DHT22;14378;51.796;5.808;2023-09-19T11:10:58;19.80;99.90
26803;DHT22;14378;51.796;5.808;2023-09-19T11:17:59;20.20;99.90
26803;DHT22;14378;51.796;5.808;2023-09-19T11:22:24;20.40;99.90
26803;DHT22;14378;51.796;5.808;2023-09-19T11:24:30;20.50;99.90
26803;DHT22;14378;51.796;5.808;2023-09-19T11:26:44;20.40;99.90
26803;DHT22;14378;51.796;5.808;2023-09-19T11:28:48;20.60;99.90
26803;DHT22;14378;51.796;5.808;2023-09-19T11:31:44;20.60;99.90
26803;DHT22;14378;51.796;5.808;2023-09-19T11:33:45;20.60;99.90
26803;DHT22;14378;51.796;5.808;2023-09-19T11:36:12;20.80;99.90
26803;DHT22;14378;51.796;5.808;2023-09-19T11:38:16;20.90;99.90
26803;DHT22;14378;51.796;5.808;2023-09-19T11:40:17;21.00;99.90
26803;DHT22;14378;51.796;5.808;2023-09-19T11:44:44;21.10;99.90
26803;DHT22;14378;51.796;5.808;2023-09-19T11:48:52;21.40;99.90
26803;DHT22;14378;51.796;5.808;2023-09-19T11:50:53;21.50;99.90
26803;DHT22;14378;51.796;5.808;2023-09-19T11:52:55;21.60;99.90
26803;DHT22;14378;51.796;5.808;2023-09-19T11:54:56;21.60;99.90
26803;DHT22;14378;51.796;5.808;2023-09-19T11:57:00;21.60;99.90
26803;DHT22;14378;51.796;5.808;2023-09-19T11:59:01;21.60;99.90
26803;DHT22;14378;51.796;5.808;2023-09-19T12:01:02;21.40;99.90
26803;DHT22;14378;51.796;5.808;2023-09-19T12:03:09;21.30;99.90
26803;DHT22;14378;51.796;5.808;2023-09-19T12:05:11;21.30;99.90
26803;DHT22;14378;51.796;5.808;2023-09-19T12:07:15;21.20;99.90
26803;DHT22;14378;51.796;5.808;2023-09-19T12:09:16;21.20;99.90
26803;DHT22;14378;51.796;5.808;2023-09-19T12:11:22;21.20;99.90
26803;DHT22;14378;51.796;5.808;2023-09-19T12:13:23;21.20;99.90
26803;DHT22;14378;51.796;5.808;2023-09-19T12:15:25;21.10;99.90
26803;DHT22;14378;51.796;5.808;2023-09-19T12:17:38;21.00;99.90
26803;DHT22;14378;51.796;5.808;2023-09-19T12:19:55;21.00;99.90
26803;DHT22;14378;51.796;5.808;2023-09-19T12:21:59;21.10;99.90
26803;DHT22;14378;51.796;5.808;2023-09-19T12:24:04;21.10;99.90
26803;DHT22;14378;51.796;5.808;2023-09-19T12:26:15;21.20;99.90
26803;DHT22;14378;51.796;5.808;2023-09-19T12:28:16;21.20;99.90
26803;DHT22;14378;51.796;5.808;2023-09-19T12:30:28;21.20;99.90
26803;DHT22;14378;51.796;5.808;2023-09-19T12:32:36;21.30;99.90
26803;DHT22;14378;51.796;5.808;2023-09-19T12:34:37;21.40;99.90
26803;DHT22;14378;51.796;5.808;2023-09-19T12:36:42;21.30;99.90
26803;DHT22;14378;51.796;5.808;2023-09-19T12:38:48;21.20;99.90
26803;DHT22;14378;51.796;5.808;2023-09-19T12:40:49;21.10;99.90
26803;DHT22;14378;51.796;5.808;2023-09-19T12:42:53;21.00;99.90
26803;DHT22;14378;51.796;5.808;2023-09-19T12:44:56;20.80;99.90
26803;DHT22;14378;51.796;5.808;2023-09-19T12:46:57;20.70;99.90
26803;DHT22;14378;51.796;5.808;2023-09-19T12:49:19;20.70;99.90
26803;DHT22;14378;51.796;5.808;2023-09-19T12:51:20;20.60;99.90
26803;DHT22;14378;51.796;5.808;2023-09-19T12:53:27;20.60;99.90
26803;DHT22;14378;51.796;5.808;2023-09-19T12:55:31;20.50;99.90
26803;DHT22;14378;51.796;5.808;2023-09-19T12:57:38;20.50;99.90
26803;DHT22;14378;51.796;5.808;2023-09-19T12:59:39;20.40;99.90
26803;DHT22;14378;51.796;5.808;2023-09-19T13:01:41;20.30;99.90
26803;DHT22;14378;51.796;5.808;2023-09-19T13:06:35;20.30;99.90
26803;DHT22;14378;51.796;5.808;2023-09-19T13:08:39;20.30;99.90
26803;DHT22;14378;51.796;5.808;2023-09-19T13:13:33;20.20;99.90
26803;DHT22;14378;51.796;5.808;2023-09-19T13:15:52;20.30;99.90
26803;DHT22;14378;51.796;5.808;2023-09-19T13:17:53;20.30;99.90
26803;DHT22;14378;51.796;5.808;2023-09-19T13:19:54;20.30;99.90
26803;DHT22;14378;51.796;5.808;2023-09-19T13:21:59;20.30;99.90
26803;DHT22;14378;51.796;5.808;2023-09-19T13:26:20;20.40;99.90
26803;DHT22;14378;51.796;5.808;2023-09-19T13:28:21;20.50;99.90
26803;DHT22;14378;51.796;5.808;2023-09-19T13:30:24;20.60;99.90
26803;DHT22;14378;51.796;5.808;2023-09-19T13:32:29;20.70;99.90
26803;DHT22;14378;51.796;5.808;2023-09-19T13:34:32;20.80;99.90
26803;DHT22;14378;51.796;5.808;2023-09-19T13:36:33;20.90;99.90
26803;DHT22;14378;51.796;5.808;2023-09-19T13:38:34;20.90;99.90
26803;DHT22;14378;51.796;5.808;2023-09-19T13:40:35;20.80;99.90
26803;DHT22;14378;51.796;5.808;2023-09-19T13:42:37;20.70;99.90
26803;DHT22;14378;51.796;5.808;2023-09-19T13:44:38;20.70;99.90
26803;DHT22;14378;51.796;5.808;2023-09-19T13:46:39;20.60;99.90
26803;DHT22;14378;51.796;5.808;2023-09-19T13:48:41;20.50;99.90